Time;durP1;ratioP1;P1;durP2;ratioP2;P2;SDS_P1;SDS_P2;PMS_P1;PMS_P2;Temp;Humidity;BMP_temperature;BMP_pressure;BME280_temperature;BME280_humidity;BME280_pressure;Samples;Min_cycle;Max_cycle;Signal;HPM_P1;HPM_P2
2024/01/05 00:01:36;;;;;;;4.85;3.75;;;;;;;2.39;89.99;98759.72;5054385;28;20091;-84
2024/01/05 00:04:02;;;;;;;4.68;3.65;;;;;;;2.47;89.70;98769.81;5054295;28;20020;-85
2024/01/05 00:06:28;;;;;;;6.53;4.25;;;;;;;2.39;89.64;98758.88;5054474;28;20044;-85
2024/01/05 00:08:53;;;;;;;5.93;3.78;;;;;;;2.49;89.89;98784.31;5072819;28;20024;-85
2024/01/05 00:11:19;;;;;;;5.68;3.58;;;;;;;2.46;90.05;98786.13;5073092;28;20060;-84
2024/01/05 00:13:48;;;;;;;4.95;3.42;;;;;;;2.32;90.39;98775.34;5073126;28;20047;-85
2024/01/05 00:16:20;;;;;;;3.80;2.90;;;;;;;2.37;90.72;98797.50;5073373;28;20028;-85
2024/01/05 00:18:46;;;;;;;7.13;3.90;;;;;;;2.35;90.74;98799.25;5056258;28;20043;-85
2024/01/05 00:21:21;;;;;;;11.07;5.97;;;;;;;2.32;90.81;98794.22;5072817;28;20036;-85
2024/01/05 00:23:48;;;;;;;10.98;6.20;;;;;;;2.36;90.94;98793.25;5072850;28;20542;-84
2024/01/05 00:26:14;;;;;;;11.13;6.25;;;;;;;2.43;91.34;98823.00;5072993;28;20371;-85
2024/01/05 00:28:40;;;;;;;10.73;5.93;;;;;;;2.47;91.49;98834.91;5073169;28;20115;-85
2024/01/05 00:31:05;;;;;;;11.70;5.95;;;;;;;2.56;91.65;98836.38;5072825;28;20043;-85
2024/01/05 00:33:30;;;;;;;11.63;6.78;;;;;;;2.41;91.58;98806.81;5073120;28;20460;-85
2024/01/05 00:35:56;;;;;;;8.55;5.05;;;;;;;2.52;91.65;98818.50;5055966;28;20116;-85
2024/01/05 00:38:21;;;;;;;9.50;5.53;;;;;;;2.47;91.51;98827.19;5052875;28;20474;-85
2024/01/05 00:40:47;;;;;;;7.07;4.80;;;;;;;2.33;92.03;98821.59;5053067;28;20041;-84
2024/01/05 00:43:12;;;;;;;6.82;3.65;;;;;;;2.20;92.24;98808.22;5052614;28;20024;-85
2024/01/05 00:45:38;;;;;;;7.70;4.32;;;;;;;2.20;92.28;98794.53;5052272;28;20025;-85
2024/01/05 00:48:03;;;;;;;6.85;4.40;;;;;;;2.10;91.74;98764.81;5052706;28;20021;-85
2024/01/05 00:50:29;;;;;;;6.07;4.32;;;;;;;2.40;92.16;98819.69;5052723;28;20126;-85
2024/01/05 00:52:54;;;;;;;7.13;5.05;;;;;;;2.07;92.24;98768.31;5052463;28;20029;-85
2024/01/05 00:55:20;;;;;;;6.85;4.13;;;;;;;2.45;92.46;98828.97;5052400;28;20141;-85
2024/01/05 00:57:45;;;;;;;6.97;3.33;;;;;;;1.92;92.07;98751.56;5052274;28;20038;-85
2024/01/05 01:00:11;;;;;;;6.30;3.90;;;;;;;2.35;92.26;98835.22;5052021;28;20049;-85
2024/01/05 01:02:37;;;;;;;6.20;4.00;;;;;;;2.19;92.56;98813.38;5052279;28;20060;-85
2024/01/05 01:05:04;;;;;;;7.32;4.82;;;;;;;2.39;92.86;98854.81;5051638;28;20049;-85
2024/01/05 01:07:29;;;;;;;6.63;4.40;;;;;;;2.24;93.38;98820.09;5052071;28;20144;-85
2024/01/05 01:09:55;;;;;;;7.45;4.85;;;;;;;2.26;93.58;98812.34;5035182;28;20120;-85
2024/01/05 01:12:20;;;;;;;9.18;4.57;;;;;;;2.31;93.30;98818.19;5051950;28;20028;-85
2024/01/05 01:14:46;;;;;;;7.88;4.25;;;;;;;2.48;93.20;98853.72;5052216;28;20174;-85
2024/01/05 01:17:11;;;;;;;5.03;4.03;;;;;;;2.38;93.01;98834.31;5054230;28;20025;-85
2024/01/05 01:19:37;;;;;;;5.97;3.97;;;;;;;2.32;93.47;98830.19;5053130;28;20017;-85
2024/01/05 01:22:03;;;;;;;6.50;4.45;;;;;;;2.44;93.72;98836.69;5054447;28;20109;-85
2024/01/05 01:24:28;;;;;;;6.60;4.28;;;;;;;2.43;93.41;98841.00;5054570;28;20016;-85
2024/01/05 01:26:54;;;;;;;5.50;4.00;;;;;;;2.41;93.80;98841.94;5053919;28;20337;-85
2024/01/05 01:29:19;;;;;;;6.35;4.22;;;;;;;2.39;93.69;98843.69;5053178;28;20025;-85
2024/01/05 01:31:45;;;;;;;5.65;3.60;;;;;;;2.29;93.77;98824.28;5054219;28;20115;-85
2024/01/05 01:34:10;;;;;;;5.55;4.00;;;;;;;2.06;93.90;98786.31;5052642;28;20379;-85
2024/01/05 01:36:35;;;;;;;7.75;5.45;;;;;;;2.53;93.83;98857.03;5054085;28;20021;-85
2024/01/05 01:39:01;;;;;;;8.90;5.53;;;;;;;2.42;93.58;98847.03;5053615;28;20029;-85
2024/01/05 01:41:26;;;;;;;7.30;4.10;;;;;;;2.51;94.15;98861.38;5052817;28;20025;-85
2024/01/05 01:43:51;;;;;;;5.80;3.90;;;;;;;2.43;94.04;98841.00;5053953;28;20028;-85
2024/01/05 01:46:17;;;;;;;7.63;4.05;;;;;;;2.27;93.95;98815.75;5053679;28;20591;-85
2024/01/05 01:48:44;;;;;;;7.60;4.50;;;;;;;2.50;93.94;98857.97;5053897;28;20021;-85
2024/01/05 01:51:11;;;;;;;6.22;4.45;;;;;;;2.53;94.08;98846.75;5053560;28;20479;-85
2024/01/05 01:53:37;;;;;;;8.82;4.80;;;;;;;2.37;93.51;98822.34;5052578;28;20021;-85
2024/01/05 01:56:03;;;;;;;6.15;4.55;;;;;;;2.42;93.31;98823.91;5053410;28;20456;-85
2024/01/05 01:58:29;;;;;;;9.10;5.63;;;;;;;2.41;93.27;98835.06;5053485;28;20448;-85
2024/01/05 02:00:54;;;;;;;8.68;5.07;;;;;;;2.33;93.58;98824.16;5052194;28;20051;-85
2024/01/05 02:03:20;;;;;;;7.55;4.85;;;;;;;2.28;93.18;98844.00;5052214;28;20023;-84
2024/01/05 02:05:47;;;;;;;9.40;5.88;;;;;;;2.40;93.30;98858.22;5053458;28;20449;-85
2024/01/05 02:08:13;;;;;;;9.85;6.63;;;;;;;2.14;93.29;98822.94;5053320;28;20021;-85
2024/01/05 02:10:40;;;;;;;14.75;7.55;;;;;;;1.98;93.50;98813.06;5053177;28;20464;-85
2024/01/05 02:13:06;;;;;;;16.60;7.72;;;;;;;2.02;93.90;98818.09;5053230;28;20025;-85
2024/01/05 02:15:31;;;;;;;15.82;7.30;;;;;;;1.93;93.77;98826.88;5053333;28;20353;-85
2024/01/05 02:17:57;;;;;;;16.80;6.75;;;;;;;2.10;94.31;98847.00;5052341;28;20016;-85
2024/01/05 02:20:22;;;;;;;12.73;5.13;;;;;;;2.14;94.38;98851.19;5053631;28;20472;-85
2024/01/05 02:22:56;;;;;;;8.00;4.32;;;;;;;2.23;94.20;98856.09;5053627;28;20053;-85
2024/01/05 02:25:21;;;;;;;8.45;4.57;;;;;;;2.22;94.34;98860.38;5053278;28;20445;-85
2024/01/05 02:27:46;;;;;;;6.15;4.43;;;;;;;2.14;94.21;98840.91;5053229;28;20028;-85
2024/01/05 02:30:21;;;;;;;8.32;4.78;;;;;;;2.09;94.42;98833.34;5052096;28;20025;-85
2024/01/05 02:32:46;;;;;;;9.40;4.80;;;;;;;2.19;94.65;98845.06;5053296;28;20070;-85
2024/01/05 02:35:12;;;;;;;8.05;4.53;;;;;;;2.04;94.16;98826.63;5052128;28;20032;-85
2024/01/05 02:37:40;;;;;;;8.93;5.10;;;;;;;1.75;94.56;98787.94;5053558;28;20040;-84
2024/01/05 02:40:06;;;;;;;12.52;6.13;;;;;;;1.92;94.61;98830.34;5053189;28;20110;-85
2024/01/05 02:42:32;;;;;;;9.93;5.63;;;;;;;2.09;94.89;98855.59;5052988;28;20468;-85
2024/01/05 02:44:57;;;;;;;10.13;6.10;;;;;;;2.07;94.96;98847.13;5052996;28;20024;-85
2024/01/05 02:47:22;;;;;;;9.25;5.30;;;;;;;2.10;94.78;98829.03;5070304;28;20039;-85
2024/01/05 02:49:48;;;;;;;7.30;4.72;;;;;;;2.14;94.76;98843.50;5070556;28;20464;-85
2024/01/05 02:52:13;;;;;;;7.93;5.35;;;;;;;2.08;94.32;98823.94;5070121;28;20435;-85
2024/01/05 02:54:39;;;;;;;9.88;6.03;;;;;;;2.02;93.95;98818.09;5070470;28;20522;-85
2024/01/05 02:57:04;;;;;;;19.85;12.43;;;;;;;1.92;94.12;98807.22;5070010;28;20115;-85
2024/01/05 02:59:29;;;;;;;11.90;8.00;;;;;;;1.95;93.54;98817.44;5069863;28;20032;-85
2024/01/05 03:01:55;;;;;;;21.48;13.70;;;;;;;2.09;94.14;98845.34;5070135;28;20067;-85
2024/01/05 03:04:20;;;;;;;12.15;7.22;;;;;;;1.97;94.52;98843.91;5069808;28;20037;-84
2024/01/05 03:06:46;;;;;;;11.57;6.78;;;;;;;1.78;95.60;98824.72;5053147;28;20043;-84
2024/01/05 03:09:11;;;;;;;10.20;7.38;;;;;;;1.69;96.23;98803.53;5069850;28;20039;-84
2024/01/05 03:11:39;;;;;;;8.10;5.88;;;;;;;1.75;96.34;98798.22;5069969;28;20021;-85
2024/01/05 03:14:05;;;;;;;9.40;5.10;;;;;;;2.07;96.31;98862.53;5069739;28;20178;-85
2024/01/05 03:16:30;;;;;;;7.72;4.85;;;;;;;1.75;96.43;98802.53;5069914;28;20038;-84
2024/01/05 03:18:55;;;;;;;8.15;4.55;;;;;;;1.98;96.12;98818.22;5056966;28;20128;-85
2024/01/05 03:21:22;;;;;;;8.75;5.63;;;;;;;2.17;96.01;98843.41;5052371;28;20028;-85
2024/01/05 03:23:47;;;;;;;9.52;5.30;;;;;;;2.09;96.12;98827.34;5052793;28;20127;-85
2024/01/05 03:26:12;;;;;;;8.93;5.13;;;;;;;1.85;96.08;98806.53;5053090;28;20515;-84
2024/01/05 03:28:39;;;;;;;9.48;5.43;;;;;;;2.05;96.21;98856.56;5055392;28;20104;-84
2024/01/05 03:31:04;;;;;;;7.88;4.50;;;;;;;1.87;96.65;98824.47;5056613;28;20029;-85
2024/01/05 03:33:30;;;;;;;9.05;5.75;;;;;;;1.92;96.19;98838.88;5055165;28;20525;-85
2024/01/05 03:35:55;;;;;;;7.50;5.22;;;;;;;1.74;96.33;98814.50;5056579;28;20074;-84
2024/01/05 03:38:20;;;;;;;11.82;5.93;;;;;;;1.60;96.48;98800.31;5056338;28;20028;-85
2024/01/05 03:40:46;;;;;;;10.27;6.28;;;;;;;1.75;96.78;98834.16;5056761;28;20104;-85
2024/01/05 03:43:12;;;;;;;10.57;6.80;;;;;;;1.65;97.12;98831.88;5056891;28;20086;-85
2024/01/05 03:45:37;;;;;;;9.25;6.70;;;;;;;1.36;97.48;98802.59;5056453;28;20025;-85
2024/01/05 03:48:03;;;;;;;7.55;4.55;;;;;;;1.40;97.49;98846.97;5059876;28;20028;-85
2024/01/05 03:50:29;;;;;;;6.68;3.97;;;;;;;1.32;98.16;98851.44;5067100;28;20029;-85
2024/01/05 03:52:54;;;;;;;6.28;4.55;;;;;;;1.26;98.80;98839.56;5064719;28;20341;-85
2024/01/05 03:55:19;;;;;;;9.45;5.60;;;;;;;1.16;99.43;98827.84;5064763;28;20061;-85
2024/01/05 03:57:45;;;;;;;8.45;5.60;;;;;;;1.20;99.62;98832.88;5058170;28;20465;-84
2024/01/05 04:00:11;;;;;;;9.50;5.00;;;;;;;1.16;100.00;98822.72;5055643;28;20037;-85
2024/01/05 04:02:36;;;;;;;7.30;4.80;;;;;;;0.92;99.48;98785.59;5054175;28;20480;-85
2024/01/05 04:05:02;;;;;;;7.80;4.65;;;;;;;1.09;99.63;98806.59;5055490;28;20021;-85
2024/01/05 04:07:27;;;;;;;5.53;4.85;;;;;;;1.12;100.00;98801.41;5055797;28;20025;-85
2024/01/05 04:09:52;;;;;;;5.95;4.82;;;;;;;1.11;100.00;98798.88;5054433;28;20113;-85
2024/01/05 04:12:18;;;;;;;6.43;4.82;;;;;;;1.12;99.64;98810.81;5055153;28;20017;-85
2024/01/05 04:14:44;;;;;;;8.95;5.88;;;;;;;1.30;100.00;98833.50;5055698;28;20021;-85
2024/01/05 04:17:11;;;;;;;8.95;5.20;;;;;;;1.01;99.90;98790.53;5054022;28;20361;-85
2024/01/05 04:19:37;;;;;;;9.60;6.30;;;;;;;0.91;100.00;98769.38;5055568;28;20021;-84
2024/01/05 04:22:04;;;;;;;9.63;6.50;;;;;;;1.41;100.00;98831.53;5055619;28;20020;-85
2024/01/05 04:24:29;;;;;;;10.75;7.68;;;;;;;1.60;99.70;98854.22;5055473;28;20025;-84
2024/01/05 04:26:54;;;;;;;9.38;6.57;;;;;;;1.45;99.56;98832.31;5055689;28;20036;-85
2024/01/05 04:29:20;;;;;;;9.88;6.85;;;;;;;1.43;99.12;98821.22;5053806;28;20175;-85
2024/01/05 04:31:45;;;;;;;10.95;7.15;;;;;;;1.39;98.69;98829.88;5055240;28;20032;-84
2024/01/05 04:34:11;;;;;;;9.35;6.63;;;;;;;1.57;98.74;98862.84;5055030;28;20036;-85
2024/01/05 04:36:36;;;;;;;9.85;6.70;;;;;;;1.74;98.67;98883.00;5054985;28;20456;-85
2024/01/05 04:39:02;;;;;;;13.20;7.22;;;;;;;1.47;98.66;98828.81;5054668;28;20040;-85
2024/01/05 04:41:27;;;;;;;10.10;6.00;;;;;;;1.70;98.24;98878.81;5054991;28;20040;-85
2024/01/05 04:43:53;;;;;;;9.40;6.53;;;;;;;1.77;98.31;98884.63;5055481;28;20025;-85
2024/01/05 04:46:18;;;;;;;11.82;9.05;;;;;;;1.57;98.29;98844.88;5054941;28;20025;-84
2024/01/05 04:48:44;;;;;;;14.70;9.98;;;;;;;1.62;98.36;98850.75;5055078;28;20021;-85
2024/01/05 04:51:09;;;;;;;14.23;9.80;;;;;;;1.59;98.04;98852.53;5054569;28;20419;-85
2024/01/05 04:53:35;;;;;;;13.90;8.85;;;;;;;1.40;98.26;98809.34;5055055;28;20029;-85
2024/01/05 04:56:00;;;;;;;13.32;8.65;;;;;;;1.74;98.48;98870.16;5054658;28;20021;-85
2024/01/05 04:58:26;;;;;;;14.25;9.68;;;;;;;1.63;98.71;98851.56;5054693;28;20372;-85
2024/01/05 05:00:52;;;;;;;11.60;8.15;;;;;;;1.78;98.88;98871.78;5054872;28;20032;-85
2024/01/05 05:03:17;;;;;;;12.55;8.85;;;;;;;1.81;98.70;98876.81;5054241;28;20452;-85
2024/01/05 05:05:42;;;;;;;14.65;9.50;;;;;;;1.54;98.58;98834.66;5053357;28;20027;-84
2024/01/05 05:08:13;;;;;;;16.63;10.48;;;;;;;1.65;98.75;98872.94;5054475;28;20020;-85
2024/01/05 05:10:39;;;;;;;14.25;9.07;;;;;;;1.31;99.17;98831.81;5054714;28;20020;-85
2024/01/05 05:13:04;;;;;;;14.98;9.07;;;;;;;1.37;99.91;98847.88;5053472;28;20024;-85
2024/01/05 05:15:29;;;;;;;12.23;8.85;;;;;;;1.57;99.92;98874.84;5053202;28;20025;-85
2024/01/05 05:17:55;;;;;;;16.40;11.13;;;;;;;1.56;100.00;98875.69;5055077;28;20372;-85
2024/01/05 05:20:20;;;;;;;15.13;9.48;;;;;;;1.39;100.00;98840.13;5052980;28;20029;-85
2024/01/05 05:22:46;;;;;;;18.08;10.00;;;;;;;1.38;100.00;98846.16;5054531;28;20021;-85
2024/01/05 05:25:11;;;;;;;11.07;8.68;;;;;;;1.15;99.96;98824.44;5052908;28;20048;-85
2024/01/05 05:27:36;;;;;;;9.68;7.35;;;;;;;1.08;100.00;98824.59;5054637;28;20017;-85
2024/01/05 05:30:06;;;;;;;9.90;6.53;;;;;;;1.27;100.00;98859.25;5052995;28;20116;-85
2024/01/05 05:32:32;;;;;;;15.18;9.88;;;;;;;1.18;100.00;98856.84;5054278;28;20048;-85
2024/01/05 05:34:58;;;;;;;9.07;6.43;;;;;;;0.80;100.00;98785.88;5054329;28;20053;-85
2024/01/05 05:37:23;;;;;;;7.65;5.35;;;;;;;1.02;100.00;98824.75;5054796;28;20128;-85
2024/01/05 05:39:49;;;;;;;12.45;6.75;;;;;;;1.07;100.00;98830.59;5054338;28;20492;-85
2024/01/05 05:42:14;;;;;;;10.43;6.68;;;;;;;1.14;99.78;98845.84;5054297;28;20100;-85
2024/01/05 05:44:39;;;;;;;8.75;5.63;;;;;;;0.83;100.00;98796.91;5054278;28;20215;-85
2024/01/05 05:47:05;;;;;;;8.13;5.95;;;;;;;1.07;99.92;98834.00;5053833;28;20517;-85
2024/01/05 05:49:30;;;;;;;8.15;5.38;;;;;;;0.86;100.00;98812.22;5053532;28;20028;-85
2024/01/05 05:51:56;;;;;;;9.48;5.63;;;;;;;0.86;100.00;98831.91;5053133;28;20017;-85
2024/01/05 05:54:21;;;;;;;9.70;6.28;;;;;;;1.04;100.00;98864.84;5053802;28;20021;-85
2024/01/05 05:56:47;;;;;;;9.07;4.95;;;;;;;0.99;100.00;98841.84;5053911;28;20086;-85
2024/01/05 05:59:13;;;;;;;8.45;6.05;;;;;;;1.03;100.00;98842.66;5053507;28;20444;-85
2024/01/05 06:01:38;;;;;;;8.68;5.10;;;;;;;0.72;100.00;98799.72;5053655;28;20044;-85
2024/01/05 06:04:05;;;;;;;11.98;7.30;;;;;;;0.90;99.83;98810.44;5052210;28;20020;-85
2024/01/05 06:06:31;;;;;;;12.82;7.20;;;;;;;0.85;99.42;98796.88;5053014;28;20448;-85
2024/01/05 06:08:56;;;;;;;6.72;5.40;;;;;;;0.91;98.97;98795.03;5053790;28;20028;-85
2024/01/05 06:11:26;;;;;;;9.68;6.15;;;;;;;1.06;99.18;98816.09;5053339;28;20029;-85
2024/01/05 06:13:51;;;;;;;14.23;10.10;;;;;;;0.95;98.95;98795.81;5053541;28;20024;-85
2024/01/05 06:16:17;;;;;;;17.58;11.43;;;;;;;1.02;99.02;98824.75;5051859;28;20021;-85
2024/01/05 06:18:42;;;;;;;13.80;8.65;;;;;;;1.07;99.35;98830.59;5053339;28;20074;-85
2024/01/05 06:21:08;;;;;;;11.75;9.38;;;;;;;1.06;99.79;98813.53;5053334;28;20055;-85
2024/01/05 06:23:34;;;;;;;9.23;6.30;;;;;;;1.00;100.00;98807.63;5053293;28;20017;-85
2024/01/05 06:25:59;;;;;;;11.00;6.35;;;;;;;1.22;100.00;98840.50;5051948;28;20198;-85
2024/01/05 06:28:24;;;;;;;10.15;6.97;;;;;;;0.88;100.00;98782.25;5053240;28;20023;-85
2024/01/05 06:30:50;;;;;;;9.57;6.18;;;;;;;0.97;100.00;98796.63;5053107;28;20028;-84
2024/01/05 06:33:15;;;;;;;11.32;7.55;;;;;;;0.89;100.00;98794.22;5052947;28;20021;-85
2024/01/05 06:35:41;;;;;;;13.60;8.80;;;;;;;1.09;100.00;98816.00;5053120;28;20449;-85
2024/01/05 06:38:06;;;;;;;10.80;6.43;;;;;;;0.96;99.74;98795.75;5052966;28;20075;-85
2024/01/05 06:40:31;;;;;;;10.63;6.35;;;;;;;0.99;99.71;98797.44;5053010;28;20036;-85
2024/01/05 06:42:57;;;;;;;9.98;6.32;;;;;;;1.10;99.82;98821.13;5053291;28;20509;-84
2024/01/05 06:45:24;;;;;;;9.80;6.63;;;;;;;1.10;99.41;98825.41;5052769;28;20028;-85
2024/01/05 06:47:49;;;;;;;22.58;13.60;;;;;;;1.10;99.42;98825.41;5052738;28;20025;-85
2024/01/05 06:50:15;;;;;;;14.50;9.18;;;;;;;0.93;99.55;98790.72;5051438;28;20123;-85
2024/01/05 06:52:40;;;;;;;12.80;7.00;;;;;;;0.64;99.71;98744.38;5052960;28;20512;-85
2024/01/05 06:55:06;;;;;;;29.05;15.43;;;;;;;1.07;99.41;98818.63;5052670;28;20053;-85
2024/01/05 06:57:35;;;;;;;38.63;20.27;;;;;;;1.04;99.85;98817.84;5052224;28;20468;-85
2024/01/05 07:00:04;;;;;;;101.22;47.65;;;;;;;0.73;99.96;98764.66;5052389;28;20464;-85
2024/01/05 07:02:29;;;;;;;20.75;12.60;;;;;;;1.02;99.76;98815.31;5052130;28;20025;-85
2024/01/05 07:04:54;;;;;;;11.07;7.70;;;;;;;1.13;99.85;98822.75;5052511;28;20051;-85
2024/01/05 07:07:20;;;;;;;14.23;8.82;;;;;;;0.96;99.64;98771.84;5052423;28;20028;-85
2024/01/05 07:09:45;;;;;;;19.60;13.45;;;;;;;1.10;98.21;98789.50;5052728;28;20025;-85
2024/01/05 07:12:11;;;;;;;44.72;27.83;;;;;;;0.83;97.07;98750.75;5052255;28;20537;-85
2024/01/05 07:14:36;;;;;;;41.75;23.63;;;;;;;1.16;97.35;98807.31;5051858;28;20546;-85
2024/01/05 07:17:01;;;;;;;19.95;14.57;;;;;;;0.91;97.47;98766.81;5052667;28;20032;-85
2024/01/05 07:19:27;;;;;;;23.15;14.05;;;;;;;1.14;97.39;98819.34;5052090;28;20025;-85
2024/01/05 07:21:53;;;;;;;13.50;9.60;;;;;;;1.05;97.73;98801.56;5052807;28;20029;-85
2024/01/05 07:24:18;;;;;;;13.70;7.80;;;;;;;1.10;98.02;98807.47;5052367;28;20103;-85
2024/01/05 07:26:44;;;;;;;14.23;8.95;;;;;;;0.94;97.99;98786.44;5052363;28;20106;-85
2024/01/05 07:29:10;;;;;;;17.55;9.55;;;;;;;0.93;98.50;98789.88;5052275;28;20037;-85
2024/01/05 07:31:36;;;;;;;28.88;12.80;;;;;;;1.14;98.85;98819.34;5052195;28;20330;-85
2024/01/05 07:34:02;;;;;;;27.02;14.88;;;;;;;0.88;99.32;98779.69;5052574;28;20029;-85
2024/01/05 07:36:28;;;;;;;29.38;16.85;;;;;;;0.84;99.45;98769.53;5052074;28;20025;-85
2024/01/05 07:38:58;;;;;;;24.13;16.58;;;;;;;1.14;99.40;98809.94;5052388;28;20356;-85
2024/01/05 07:41:24;;;;;;;20.73;13.40;;;;;;;0.94;99.66;98768.50;5052123;28;20112;-85
2024/01/05 07:43:49;;;;;;;19.55;13.18;;;;;;;0.93;99.89;98771.94;5051105;28;20104;-85
2024/01/05 07:46:15;;;;;;;16.63;10.80;;;;;;;0.93;100.00;98772.78;5052294;28;20028;-85
2024/01/05 07:48:40;;;;;;;12.30;9.13;;;;;;;0.98;100.00;98781.22;5050791;28;20025;-85
2024/01/05 07:51:06;;;;;;;14.38;10.48;;;;;;;0.95;100.00;98780.44;5050987;28;20368;-85
2024/01/05 07:53:31;;;;;;;12.10;9.73;;;;;;;1.18;100.00;98820.94;5051884;28;20025;-85
2024/01/05 07:56:02;;;;;;;12.35;8.73;;;;;;;1.15;100.00;98816.75;5052659;28;20040;-84
2024/01/05 07:58:28;;;;;;;13.35;9.85;;;;;;;1.13;100.00;98812.50;5052230;28;20538;-85
2024/01/05 08:00:53;;;;;;;15.15;9.60;;;;;;;0.98;100.00;98788.91;5052274;28;20045;-85
2024/01/05 08:03:19;;;;;;;14.75;10.38;;;;;;;0.96;100.00;98787.22;5052282;28;20048;-85
2024/01/05 08:05:44;;;;;;;58.22;38.13;;;;;;;1.09;100.00;98806.59;5052298;28;20024;-85
2024/01/05 08:08:10;;;;;;;38.25;27.23;;;;;;;1.11;100.00;98820.25;5052581;28;20025;-85
2024/01/05 08:10:35;;;;;;;24.45;18.45;;;;;;;1.10;100.00;98817.72;5051865;28;20028;-85
2024/01/05 08:13:01;;;;;;;34.47;24.27;;;;;;;1.08;100.00;98812.59;5052508;28;20044;-85
2024/01/05 08:15:27;;;;;;;18.75;12.85;;;;;;;1.07;100.00;98821.19;5054011;28;20155;-84
2024/01/05 08:17:53;;;;;;;25.70;16.00;;;;;;;0.88;100.00;98783.97;5055773;28;20035;-85
2024/01/05 08:20:18;;;;;;;15.43;10.50;;;;;;;0.74;100.00;98756.94;5055764;28;20355;-85
2024/01/05 08:22:44;;;;;;;13.65;9.05;;;;;;;0.82;99.78;98766.19;5054626;28;20016;-85
2024/01/05 08:25:09;;;;;;;17.98;11.25;;;;;;;1.03;99.95;98809.31;5054516;28;20111;-85
2024/01/05 08:27:35;;;;;;;14.55;9.55;;;;;;;1.18;100.00;98823.50;5055210;28;20112;-85
2024/01/05 08:30:00;;;;;;;15.40;8.82;;;;;;;1.03;100.00;98799.06;5054163;28;20075;-85
2024/01/05 08:32:26;;;;;;;13.57;11.40;;;;;;;1.17;100.00;98822.66;5055220;28;20082;-85
2024/01/05 08:34:51;;;;;;;15.07;10.15;;;;;;;1.04;99.96;98798.16;5055456;28;20091;-85
2024/01/05 08:37:16;;;;;;;18.17;11.15;;;;;;;0.92;100.00;98772.78;5055470;28;20017;-85
2024/01/05 08:39:42;;;;;;;18.98;10.27;;;;;;;1.10;100.00;98812.59;5053924;28;20052;-85
2024/01/05 08:42:08;;;;;;;13.52;9.32;;;;;;;1.10;99.91;98816.00;5055400;28;20013;-85
2024/01/05 08:44:35;;;;;;;168.02;90.95;;;;;;;1.21;99.84;98828.56;5055089;28;20063;-85
2024/01/05 08:47:00;;;;;;;14.13;9.90;;;;;;;1.09;99.69;98803.19;5055419;28;20111;-85
2024/01/05 08:49:26;;;;;;;269.73;123.60;;;;;;;1.26;99.34;98821.63;5055033;28;20017;-85
2024/01/05 08:51:52;;;;;;;29.25;17.42;;;;;;;1.33;99.27;98824.91;5055408;28;20021;-84
2024/01/05 08:54:17;;;;;;;27.80;19.35;;;;;;;0.99;98.99;98759.81;5055188;28;20021;-85
2024/01/05 08:56:42;;;;;;;27.65;19.58;;;;;;;1.35;98.77;98813.75;5055233;28;20039;-85
2024/01/05 08:59:08;;;;;;;31.10;21.52;;;;;;;1.39;98.72;98806.78;5055004;28;20021;-85
2024/01/05 09:01:33;;;;;;;20.33;14.48;;;;;;;1.19;98.09;98774.75;5053308;28;20037;-85
2024/01/05 09:03:59;;;;;;;14.18;9.52;;;;;;;1.46;97.65;98813.47;5054907;28;20024;-85
2024/01/05 09:06:25;;;;;;;27.00;18.20;;;;;;;1.19;97.34;98768.78;5054829;28;20078;-85
2024/01/05 09:08:50;;;;;;;28.98;21.52;;;;;;;1.39;97.24;98809.34;5054878;28;20406;-85
2024/01/05 09:11:16;;;;;;;12.80;8.25;;;;;;;1.35;96.62;98800.91;5053915;28;20021;-84
2024/01/05 09:13:41;;;;;;;19.52;13.10;;;;;;;1.32;96.75;98792.44;5053483;28;20487;-85
2024/01/05 09:16:06;;;;;;;9.70;6.88;;;;;;;1.11;96.42;98757.84;5054771;28;20056;-85
2024/01/05 09:18:35;;;;;;;15.63;9.20;;;;;;;1.40;96.30;98803.38;5054394;28;20020;-85
2024/01/05 09:21:02;;;;;;;13.63;7.90;;;;;;;1.34;95.86;98796.63;5054486;28;20025;-85
2024/01/05 09:23:27;;;;;;;8.50;6.07;;;;;;;1.07;95.68;98762.22;5054566;28;20104;-85
2024/01/05 09:25:53;;;;;;;17.90;12.45;;;;;;;1.20;95.57;98798.69;5054431;28;20107;-85
2024/01/05 09:28:18;;;;;;;12.23;9.23;;;;;;;1.09;95.64;98782.69;5054890;28;20575;-85
2024/01/05 09:30:44;;;;;;;11.23;7.70;;;;;;;1.35;96.06;98815.44;5053024;28;20472;-86
2024/01/05 09:33:09;;;;;;;17.73;11.48;;;;;;;1.45;96.24;98828.03;5053322;28;20338;-85
2024/01/05 09:35:35;;;;;;;9.13;7.88;;;;;;;1.21;96.13;98778.13;5054192;28;20032;-85
2024/01/05 09:38:00;;;;;;;14.35;9.48;;;;;;;1.10;95.69;98772.41;5054456;28;20369;-85
2024/01/05 09:40:26;;;;;;;18.30;10.95;;;;;;;1.20;96.05;98809.78;5052802;28;20021;-85
2024/01/05 09:42:52;;;;;;;16.20;9.05;;;;;;;1.31;96.37;98830.06;5053532;28;20024;-85
2024/01/05 09:45:21;;;;;;;11.48;7.40;;;;;;;1.21;96.60;98816.59;5054850;28;20075;-85
2024/01/05 09:47:49;;;;;;;9.55;7.38;;;;;;;1.23;97.08;98811.44;5054210;28;20052;-85
2024/01/05 09:50:16;;;;;;;11.13;7.22;;;;;;;1.41;96.71;98835.84;5054244;28;20401;-85
2024/01/05 09:52:43;;;;;;;12.25;6.75;;;;;;;0.85;97.08;98741.34;5053133;28;20021;-84
2024/01/05 09:55:08;;;;;;;12.27;7.63;;;;;;;1.18;97.02;98791.03;5053946;28;20036;-85
2024/01/05 09:57:36;;;;;;;14.50;8.95;;;;;;;1.53;97.30;98843.25;5059329;28;20356;-85
2024/01/05 10:00:03;;;;;;;12.63;7.88;;;;;;;1.42;96.92;98830.66;5058465;28;20045;-85
2024/01/05 10:02:36;;;;;;;25.42;15.30;;;;;;;1.33;96.69;98800.09;5061524;28;20017;-84
2024/01/05 10:05:02;;;;;;;13.82;9.07;;;;;;;1.18;96.54;98778.22;5065950;28;20029;-89
2024/01/05 10:07:27;;;;;;;14.05;7.82;;;;;;;1.52;96.59;98827.88;5071541;28;20023;-90
2024/01/05 10:09:54;;;;;;;16.33;12.07;;;;;;;1.52;97.43;98831.31;5068721;28;20021;-86
2024/01/05 10:12:20;;;;;;;15.65;11.15;;;;;;;1.73;97.28;98847.94;5060775;28;20060;-87
2024/01/05 10:14:47;;;;;;;14.68;8.60;;;;;;;1.75;97.12;98839.28;5052646;28;20071;-87
2024/01/05 10:17:13;;;;;;;17.08;9.18;;;;;;;1.65;96.83;98809.59;5053662;28;20448;-86
2024/01/05 10:19:41;;;;;;;12.85;8.52;;;;;;;1.74;96.80;98826.50;5052780;28;20021;-84
2024/01/05 10:22:14;;;;;;;13.02;8.02;;;;;;;1.67;97.15;98819.81;5053806;28;20017;-84
2024/01/05 10:24:41;;;;;;;15.43;9.43;;;;;;;1.55;97.14;98790.16;5051828;28;20423;-84
2024/01/05 10:27:11;;;;;;;15.32;8.38;;;;;;;1.74;97.73;98826.50;5051964;28;20021;-85
2024/01/05 10:29:42;;;;;;;15.10;10.57;;;;;;;1.75;97.63;98812.78;5052975;28;20109;-84
2024/01/05 10:32:11;;;;;;;14.95;9.70;;;;;;;1.63;97.95;98770.28;5053086;28;20013;-84
2024/01/05 10:34:38;;;;;;;14.50;11.05;;;;;;;1.88;97.68;98813.31;5051600;28;20100;-84
2024/01/05 10:37:05;;;;;;;11.55;7.75;;;;;;;1.78;97.85;98802.44;5052638;28;20468;-85
2024/01/05 10:39:30;;;;;;;15.30;9.90;;;;;;;1.59;97.57;98771.25;5053041;28;20028;-85
2024/01/05 10:42:14;;;;;;;16.17;10.55;;;;;;;1.69;97.83;98779.56;5052924;28;20021;-84
2024/01/05 10:44:42;;;;;;;14.68;10.00;;;;;;;1.92;98.08;98799.53;5051490;28;20369;-84
2024/01/05 10:47:08;;;;;;;18.67;13.00;;;;;;;1.96;98.34;98781.44;5052819;28;20021;-84
2024/01/05 10:49:34;;;;;;;16.95;10.00;;;;;;;1.79;98.31;98746.81;5051313;28;20082;-84
2024/01/05 10:52:02;;;;;;;14.63;9.70;;;;;;;1.93;98.35;98767.81;5052769;28;20103;-85
2024/01/05 10:54:28;;;;;;;14.45;8.68;;;;;;;1.72;98.14;98746.94;5052839;28;20033;-85
2024/01/05 10:56:57;;;;;;;14.07;9.18;;;;;;;1.62;98.39;98729.28;5052820;28;20509;-84
2024/01/05 10:59:24;;;;;;;17.17;10.15;;;;;;;1.64;98.66;98715.50;5051336;28;20029;-85
2024/01/05 11:01:50;;;;;;;18.30;10.60;;;;;;;1.62;98.88;98713.88;5052628;28;20482;-84
2024/01/05 11:04:18;;;;;;;13.38;9.98;;;;;;;1.78;99.02;98740.84;5052769;28;20036;-84
2024/01/05 11:06:45;;;;;;;16.40;9.90;;;;;;;1.82;99.83;98747.56;5052241;28;20070;-84
2024/01/05 11:09:47;;;;;;;17.88;11.23;;;;;;;1.92;99.85;98767.00;5051172;28;20112;-84
2024/01/05 11:12:21;;;;;;;14.82;9.80;;;;;;;1.95;99.92;98753.25;5049862;28;20033;-84
2024/01/05 11:14:47;;;;;;;15.32;10.73;;;;;;;2.00;100.00;98753.94;5049570;28;20114;-84
2024/01/05 11:17:36;;;;;;;22.33;14.32;;;;;;;2.02;100.00;98752.16;5033158;28;20067;-84
2024/01/05 11:20:21;;;;;;;98.68;54.85;;;;;;;1.93;100.00;98753.25;5049909;28;20040;-84
2024/01/05 11:22:48;;;;;;;35.65;21.40;;;;;;;1.78;100.00;98727.16;5049513;28;20064;-84
2024/01/05 11:25:15;;;;;;;25.17;14.98;;;;;;;1.78;100.00;98727.16;5049701;28;20029;-83
2024/01/05 11:27:47;;;;;;;71.78;36.67;;;;;;;1.68;100.00;98719.66;5049684;28;20049;-84
2024/01/05 11:30:13;;;;;;;150.65;74.03;;;;;;;1.86;100.00;98738.06;5049817;28;20041;-83